Time;durP1;ratioP1;P1;durP2;ratioP2;P2;SDS_P1;SDS_P2;PMS_P1;PMS_P2;Temp;Humidity;BMP_temperature;BMP_pressure;BME280_temperature;BME280_humidity;BME280_pressure;Samples;Min_cycle;Max_cycle;Signal;HPM_P1;HPM_P2
2021/01/10 00:00:36;;;;;;;31.90;16.38;;;;;;;-0.89;95.75;102624.19;5082173;28;20093;-82
2021/01/10 00:03:02;;;;;;;28.02;15.88;;;;;;;-0.95;96.20;102627.91;5079671;28;20540;-81
2021/01/10 00:05:34;;;;;;;29.23;15.93;;;;;;;-1.00;96.01;102630.69;5086833;28;20482;-80
2021/01/10 00:08:00;;;;;;;24.40;14.23;;;;;;;-1.07;95.66;102629.22;5082077;28;20031;-80
2021/01/10 00:10:26;;;;;;;23.40;13.40;;;;;;;-1.14;95.69;102625.94;5076908;28;20077;-81
2021/01/10 00:12:58;;;;;;;22.67;12.80;;;;;;;-1.20;95.50;102630.38;5079917;28;20459;-79
2021/01/10 00:15:24;;;;;;;25.10;11.80;;;;;;;-1.21;95.46;102623.56;5081744;28;20036;-81
2021/01/10 00:17:49;;;;;;;21.50;12.15;;;;;;;-1.29;95.19;102628.75;5084337;28;20024;-79
2021/01/10 00:20:17;;;;;;;22.23;12.23;;;;;;;-1.37;94.81;102624.53;5085379;28;20028;-79
2021/01/10 00:22:43;;;;;;;24.93;13.37;;;;;;;-1.49;94.53;102619.91;5083994;28;20036;-80
2021/01/10 00:25:10;;;;;;;23.50;12.93;;;;;;;-1.49;94.07;102619.91;5078156;28;20035;-79
2021/01/10 00:27:36;;;;;;;24.97;14.80;;;;;;;-1.48;93.92;102630.16;5082343;28;20028;-79
2021/01/10 00:30:03;;;;;;;27.85;14.30;;;;;;;-1.49;93.84;102625.84;5083300;28;20479;-78
2021/01/10 00:32:28;;;;;;;29.10;14.57;;;;;;;-1.52;94.12;102627.16;5078433;28;20074;-80
2021/01/10 00:34:54;;;;;;;24.45;13.15;;;;;;;-1.55;94.12;102625.25;5077671;28;20028;-79
2021/01/10 00:37:21;;;;;;;23.20;11.63;;;;;;;-1.51;94.71;102622.28;5078672;28;20012;-79
2021/01/10 00:39:48;;;;;;;23.93;12.17;;;;;;;-1.47;94.74;102614.28;5085063;28;20101;-79
2021/01/10 00:42:14;;;;;;;23.10;10.60;;;;;;;-1.23;95.80;102620.00;5085249;28;20124;-79
2021/01/10 00:44:40;;;;;;;23.23;12.10;;;;;;;-1.06;95.96;102615.84;5080639;28;20024;-79
2021/01/10 00:47:06;;;;;;;24.10;13.43;;;;;;;-0.86;96.17;102615.28;5076504;28;20444;-78
2021/01/10 00:49:32;;;;;;;21.52;12.02;;;;;;;-0.73;96.29;102617.38;5076253;28;20039;-80
2021/01/10 00:51:58;;;;;;;23.02;10.25;;;;;;;-0.68;96.20;102623.75;5080517;28;20016;-79
2021/01/10 00:54:23;;;;;;;19.52;10.77;;;;;;;-0.64;96.03;102620.81;5082267;28;20486;-76
2021/01/10 00:56:48;;;;;;;17.13;9.48;;;;;;;-0.61;96.06;102608.47;5079964;28;20036;-79
2021/01/10 00:59:14;;;;;;;21.20;10.25;;;;;;;-0.66;95.63;102610.53;5079000;28;20044;-78
2021/01/10 01:01:40;;;;;;;15.68;8.48;;;;;;;-0.63;95.25;102609.97;5083026;28;20024;-78
2021/01/10 01:04:06;;;;;;;19.83;7.70;;;;;;;-0.56;95.35;102614.84;5078541;28;20553;-78
2021/01/10 01:06:31;;;;;;;16.17;7.38;;;;;;;-0.44;95.59;102610.09;5080581;28;20124;-78
2021/01/10 01:08:57;;;;;;;12.27;7.35;;;;;;;-0.35;95.53;102609.31;5080972;28;20024;-83
2021/01/10 01:11:33;;;;;;;20.60;9.00;;;;;;;-0.32;95.05;102614.69;5082463;28;20092;-78
2021/01/10 01:14:00;;;;;;;13.35;7.20;;;;;;;-0.28;94.95;102610.81;5077739;28;20514;-78
2021/01/10 01:16:25;;;;;;;10.82;6.55;;;;;;;-0.23;94.93;102609.63;5081419;28;20102;-78
2021/01/10 01:18:51;;;;;;;13.90;7.13;;;;;;;-0.20;94.77;102614.06;5092569;23;20491;-80
2021/01/10 01:21:17;;;;;;;12.73;7.57;;;;;;;-0.24;94.55;102612.88;5055835;28;20020;-79
2021/01/10 01:23:43;;;;;;;15.00;8.40;;;;;;;-0.24;94.58;102617.06;5053076;28;20406;-79
2021/01/10 01:26:19;;;;;;;19.25;10.05;;;;;;;-0.22;94.34;102616.44;5053966;28;20271;-80
2021/01/10 01:28:45;;;;;;;14.95;8.70;;;;;;;-0.24;94.11;102612.88;5048282;28;20036;-80
2021/01/10 01:31:16;;;;;;;13.23;6.40;;;;;;;-0.19;94.21;102618.38;5033647;28;20033;-81
2021/01/10 01:33:42;;;;;;;13.37;7.43;;;;;;;-0.20;94.38;102617.47;5034809;28;20033;-80
2021/01/10 01:36:11;;;;;;;;;;;;;;;-0.16;94.58;102613.59;5035926;28;20102;-80
2021/01/10 01:38:40;;;;;;;12.07;6.13;;;;;;;-0.17;94.50;102610.19;5033275;28;20000;-79
2021/01/10 01:41:06;;;;;;;15.30;6.23;;;;;;;-0.19;94.45;102613.31;5034871;28;20545;-79
2021/01/10 01:43:35;;;;;;;;;;;;;;;-0.09;94.41;102614.31;5033714;28;20061;-79
2021/01/10 01:46:02;;;;;;;10.60;5.10;;;;;;;0.10;94.78;102611.03;5033655;28;20374;-79
2021/01/10 01:48:32;;;;;;;12.40;4.53;;;;;;;0.19;94.97;102614.41;5033608;28;20022;-79
2021/01/10 01:50:59;;;;;;;8.53;4.40;;;;;;;0.16;94.73;102607.41;5033056;28;20084;-78
2021/01/10 01:53:27;;;;;;;10.93;4.20;;;;;;;0.14;94.53;102615.59;5033801;28;20399;-80
2021/01/10 01:55:54;;;;;;;9.73;4.60;;;;;;;0.06;94.73;102616.53;5034959;28;20052;-79
2021/01/10 01:58:21;;;;;;;10.27;4.50;;;;;;;-0.02;94.53;102615.78;5034419;28;20045;-79
2021/01/10 02:00:47;;;;;;;8.43;4.13;;;;;;;-0.02;94.39;102611.63;5033273;28;20033;-81
2021/01/10 02:03:41;;;;;;;12.40;4.05;;;;;;;0.04;94.72;102615.50;5033835;28;20379;-79
2021/01/10 02:06:20;;;;;;;12.47;3.97;;;;;;;0.05;94.68;102617.28;5032892;28;20025;-80
2021/01/10 02:08:51;;;;;;;11.03;4.47;;;;;;;0.05;94.94;102612.22;5034728;28;20033;-80
2021/01/10 02:11:25;;;;;;;12.37;4.53;;;;;;;0.03;95.02;102608.66;5035005;28;20029;-80
2021/01/10 02:13:53;;;;;;;9.33;3.63;;;;;;;0.03;95.24;102604.50;5034549;28;20039;-79
2021/01/10 02:16:23;;;;;;;11.73;3.20;;;;;;;0.02;94.73;102596.78;5038150;28;20052;-78
2021/01/10 02:18:49;;;;;;;15.67;7.97;;;;;;;0.33;95.75;102593.84;5039126;28;20491;-79
2021/01/10 02:21:15;;;;;;;22.83;7.63;;;;;;;0.39;94.28;102591.88;5039771;28;20048;-79
2021/01/10 02:23:43;;;;;;;16.67;8.47;;;;;;;0.28;93.14;102597.56;5040295;28;20029;-79
2021/01/10 02:26:11;;;;;;;18.80;8.00;;;;;;;0.26;92.89;102594.00;5039928;28;20017;-79
2021/01/10 02:28:38;;;;;;;13.90;6.90;;;;;;;0.31;92.93;102588.63;5040059;28;20040;-80
2021/01/10 02:31:13;;;;;;;14.47;6.80;;;;;;;0.27;92.92;102586.56;5040127;28;20037;-79
2021/01/10 02:33:50;;;;;;;12.50;6.73;;;;;;;0.16;92.76;102586.31;5040003;28;20163;-79
2021/01/10 02:36:32;;;;;;;14.33;6.23;;;;;;;0.06;93.08;102587.09;5039625;28;20025;-78
2021/01/10 02:39:09;;;;;;;13.67;7.73;;;;;;;0.05;93.81;102586.97;5037515;28;20026;-80
2021/01/10 02:41:50;;;;;;;13.43;7.50;;;;;;;0.01;94.53;102584.91;5037830;28;20034;-79
2021/01/10 02:44:30;;;;;;;17.33;8.07;;;;;;;0.04;94.95;102583.56;5038360;28;20029;-79
2021/01/10 02:47:20;;;;;;;17.80;7.17;;;;;;;-0.02;95.22;102591.41;5039266;28;20029;-79
2021/01/10 02:49:47;;;;;;;18.37;8.47;;;;;;;-0.03;95.28;102579.53;5039193;28;20033;-80
2021/01/10 02:52:15;;;;;;;18.63;8.37;;;;;;;-0.03;95.61;102573.59;5039084;28;20033;-79
2021/01/10 02:54:48;;;;;;;18.73;7.80;;;;;;;-0.01;95.97;102579.69;5038075;28;20028;-80
2021/01/10 02:57:26;;;;;;;12.53;6.47;;;;;;;-0.03;96.04;102574.47;5036273;28;20503;-79
2021/01/10 02:59:55;;;;;;;11.63;5.33;;;;;;;-0.03;96.15;102569.44;5036562;28;20108;-78
2021/01/10 03:02:21;;;;;;;16.30;4.93;;;;;;;-0.04;96.14;102566.75;5037929;28;20055;-77
2021/01/10 03:04:50;;;;;;;;;;;;;;;0.09;96.49;102563.75;5038029;28;20025;-79
2021/01/10 03:07:20;;;;;;;15.60;7.07;;;;;;;0.05;96.57;102556.66;5038322;28;19913;-78
2021/01/10 03:09:48;;;;;;;16.10;7.20;;;;;;;-0.01;96.76;102549.34;5033832;28;20029;-79
2021/01/10 03:12:35;;;;;;;14.03;7.10;;;;;;;-0.07;96.43;102562.31;5033016;28;20037;-80
2021/01/10 03:15:06;;;;;;;17.17;8.25;;;;;;;0.02;96.82;102561.41;5032303;28;20025;-79
2021/01/10 03:17:57;;;;;;;17.67;9.53;;;;;;;-0.01;96.86;102546.84;5033976;28;20025;-81
2021/01/10 03:20:25;;;;;;;17.67;8.03;;;;;;;-0.09;96.90;102557.88;5033270;28;20390;-80
2021/01/10 03:22:50;;;;;;;18.57;9.93;;;;;;;0.03;97.33;102559.03;5032523;28;20033;-80
2021/01/10 03:25:29;;;;;;;20.23;8.18;;;;;;;-0.05;97.38;102560.81;5032153;28;20025;-81
2021/01/10 03:28:00;;;;;;;14.83;7.33;;;;;;;-0.14;97.26;102565.00;5033888;28;20025;-80
2021/01/10 03:30:26;;;;;;;17.77;7.27;;;;;;;-0.19;97.15;102561.19;5031636;28;20025;-79
2021/01/10 03:32:51;;;;;;;15.25;7.50;;;;;;;-0.23;97.40;102561.63;5032285;28;20024;-80
2021/01/10 03:35:40;;;;;;;15.63;7.63;;;;;;;-0.21;97.31;102556.72;5033051;28;20049;-80
2021/01/10 03:38:14;;;;;;;17.97;8.33;;;;;;;-0.25;97.17;102562.25;5031961;28;20033;-80
2021/01/10 03:40:39;;;;;;;15.77;7.73;;;;;;;-0.29;97.19;102555.13;5033013;28;20029;-82
2021/01/10 03:43:04;;;;;;;16.17;7.88;;;;;;;-0.31;97.15;102554.97;5031932;28;20017;-81
2021/01/10 03:45:30;;;;;;;12.80;6.72;;;;;;;-0.32;96.99;102550.69;5032992;28;20079;-81
2021/01/10 03:48:00;;;;;;;20.38;7.22;;;;;;;-0.27;97.25;102546.94;5033500;28;20020;-79
2021/01/10 03:50:26;;;;;;;13.27;6.90;;;;;;;-0.21;97.37;102550.03;5030548;28;20029;-80
2021/01/10 03:52:51;;;;;;;21.90;6.68;;;;;;;-0.19;97.63;102553.59;5033061;28;20043;-80
2021/01/10 03:55:25;;;;;;;12.30;6.78;;;;;;;-0.16;97.28;102546.31;5032123;28;20057;-79
2021/01/10 03:57:51;;;;;;;14.40;6.90;;;;;;;-0.14;97.63;102539.75;5031705;28;20042;-81
2021/01/10 04:00:17;;;;;;;14.10;6.90;;;;;;;-0.08;97.88;102545.38;5031615;28;20051;-79
2021/01/10 04:02:44;;;;;;;11.73;6.88;;;;;;;-0.10;97.76;102544.34;5031830;28;20028;-80
2021/01/10 04:05:10;;;;;;;14.97;6.63;;;;;;;-0.10;97.62;102541.81;5033595;28;20059;-80
2021/01/10 04:07:35;;;;;;;11.25;5.90;;;;;;;-0.09;97.59;102545.25;5032934;28;20025;-80
2021/01/10 04:10:01;;;;;;;10.73;5.60;;;;;;;-0.09;97.73;102545.25;5031807;28;20465;-80
2021/01/10 04:12:26;;;;;;;11.57;5.05;;;;;;;-0.07;97.73;102549.69;5031364;28;20629;-80
2021/01/10 04:14:57;;;;;;;11.07;4.68;;;;;;;-0.09;97.15;102548.66;5031262;28;20055;-81
2021/01/10 04:17:25;;;;;;;11.37;5.63;;;;;;;-0.05;97.76;102543.13;5030967;28;20032;-80
2021/01/10 04:19:52;;;;;;;12.73;5.60;;;;;;;-0.01;97.66;102546.84;5032332;28;20025;-80
2021/01/10 04:22:21;;;;;;;8.97;5.60;;;;;;;0.02;97.72;102547.16;5032478;28;20037;-79
2021/01/10 04:24:51;;;;;;;13.53;5.50;;;;;;;0.03;97.97;102543.88;5032318;28;20029;-79
2021/01/10 04:27:28;;;;;;;14.40;6.10;;;;;;;0.23;98.04;102538.13;5032376;28;20025;-79
2021/01/10 04:29:53;;;;;;;10.00;5.23;;;;;;;0.23;97.57;102546.59;5031499;28;20049;-79
2021/01/10 04:32:22;;;;;;;13.13;5.55;;;;;;;0.21;97.49;102540.50;5031670;28;20983;-80
2021/01/10 04:34:47;;;;;;;12.70;5.00;;;;;;;0.18;97.85;102542.75;5030624;28;20031;-80
2021/01/10 04:37:15;;;;;;;13.35;5.35;;;;;;;0.19;97.89;102536.06;5029221;28;20175;-79
2021/01/10 04:39:41;;;;;;;11.97;5.37;;;;;;;0.18;97.68;102531.75;5030452;28;20025;-81
2021/01/10 04:42:08;;;;;;;11.57;6.00;;;;;;;0.15;97.85;102539.94;5030245;28;20033;-80
2021/01/10 04:44:33;;;;;;;11.80;5.27;;;;;;;0.16;97.67;102535.78;5030309;28;20021;-81
2021/01/10 04:46:59;;;;;;;14.85;5.38;;;;;;;0.16;97.39;102536.66;5031377;28;20117;-80
2021/01/10 04:49:24;;;;;;;12.48;5.55;;;;;;;0.19;97.50;102538.59;5027281;28;20029;-80
2021/01/10 04:51:54;;;;;;;13.05;6.07;;;;;;;0.21;97.42;102529.50;5027275;28;20049;-80
2021/01/10 04:54:21;;;;;;;13.00;5.30;;;;;;;0.22;97.50;102531.28;5028531;28;20029;-78
2021/01/10 04:56:47;;;;;;;11.23;5.47;;;;;;;0.24;97.26;102530.66;5031810;28;20030;-81
2021/01/10 04:59:16;;;;;;;;;;;;;;;0.39;97.12;102522.72;5031809;28;20501;-80
2021/01/10 05:01:45;;;;;;;8.30;4.77;;;;;;;0.34;97.26;102526.47;5031283;28;19920;-80
2021/01/10 05:04:11;;;;;;;8.57;4.90;;;;;;;0.34;96.90;102518.91;5033357;28;20561;-80
2021/01/10 05:06:36;;;;;;;10.52;5.68;;;;;;;0.28;96.89;102511.63;5031148;28;20018;-81
2021/01/10 05:09:06;;;;;;;8.25;4.80;;;;;;;0.28;96.81;102511.63;5032665;28;20108;-79
2021/01/10 05:11:32;;;;;;;11.93;5.20;;;;;;;0.31;96.83;102514.44;5032931;28;20151;-80
2021/01/10 05:13:57;;;;;;;10.27;5.40;;;;;;;0.29;96.64;102511.75;5032567;28;20072;-79
2021/01/10 05:16:22;;;;;;;11.65;5.20;;;;;;;0.23;96.85;102501.09;5032564;28;20047;-79
2021/01/10 05:18:53;;;;;;;11.68;4.80;;;;;;;0.19;96.83;102511.69;5031253;28;20034;-80
2021/01/10 05:21:20;;;;;;;14.13;5.23;;;;;;;0.14;96.31;102514.53;5032843;28;20034;-80
2021/01/10 05:23:57;;;;;;;10.17;5.07;;;;;;;0.13;96.34;102513.66;5031173;28;20614;-79
2021/01/10 05:26:30;;;;;;;9.73;5.20;;;;;;;0.13;96.48;102515.28;5032122;28;20036;-80
2021/01/10 05:28:57;;;;;;;9.00;5.43;;;;;;;0.14;96.46;102504.44;5032530;28;20498;-79
2021/01/10 05:31:32;;;;;;;14.10;5.07;;;;;;;0.10;96.46;102498.22;5032380;28;20080;-80
2021/01/10 05:33:57;;;;;;;11.07;5.00;;;;;;;0.18;96.38;102503.97;5030889;28;20396;-79
2021/01/10 05:36:37;;;;;;;9.90;4.53;;;;;;;0.09;96.23;102501.47;5032237;28;20022;-79
2021/01/10 05:39:25;;;;;;;8.83;5.43;;;;;;;0.04;96.31;102500.19;5031146;28;20025;-80
2021/01/10 05:42:03;;;;;;;12.53;6.03;;;;;;;-0.02;96.56;102503.00;5031951;28;20099;-81
2021/01/10 05:44:30;;;;;;;10.20;5.07;;;;;;;-0.09;96.22;102498.13;5032458;28;20103;-80
2021/01/10 05:47:03;;;;;;;10.77;5.33;;;;;;;-0.09;96.52;102493.09;5031043;28;20025;-80
2021/01/10 05:49:29;;;;;;;8.17;5.07;;;;;;;-0.06;96.39;102493.38;5030507;28;20039;-81
2021/01/10 05:51:55;;;;;;;14.02;6.25;;;;;;;-0.06;96.32;102502.59;5032123;28;20021;-80
2021/01/10 05:54:40;;;;;;;14.13;5.97;;;;;;;-0.08;96.53;102497.38;5031165;28;20097;-80
2021/01/10 05:57:06;;;;;;;11.77;5.30;;;;;;;-0.08;96.52;102501.56;5030317;28;20551;-79
2021/01/10 05:59:33;;;;;;;;;;;;;;;-0.09;96.72;102510.75;5029475;28;20390;-81
2021/01/10 06:02:01;;;;;;;11.77;6.15;;;;;;;-0.11;96.88;102504.69;5033180;28;20394;-81
2021/01/10 06:04:27;;;;;;;16.93;5.93;;;;;;;-0.12;96.78;102497.84;5036228;28;20042;-80
2021/01/10 06:06:53;;;;;;;9.57;5.95;;;;;;;-0.05;96.86;102500.19;5035718;28;20029;-79
2021/01/10 06:09:20;;;;;;;15.53;5.90;;;;;;;-0.06;96.88;102507.63;5034044;28;20060;-80
2021/01/10 06:11:45;;;;;;;18.20;5.57;;;;;;;-0.07;96.88;102501.69;5035624;28;20061;-80
2021/01/10 06:14:19;;;;;;;10.45;5.18;;;;;;;-0.09;96.69;102505.72;5034693;28;20442;-79
2021/01/10 06:16:52;;;;;;;11.40;5.23;;;;;;;-0.10;96.58;102506.47;5035122;28;20061;-79
2021/01/10 06:19:18;;;;;;;10.67;5.23;;;;;;;-0.13;96.78;102506.19;5032900;28;20036;-79
2021/01/10 06:21:47;;;;;;;15.02;5.88;;;;;;;-0.12;96.96;102509.59;5035184;28;20414;-80
2021/01/10 06:24:19;;;;;;;9.80;5.07;;;;;;;-0.10;97.07;102519.09;5035560;28;20487;-79
2021/01/10 06:26:49;;;;;;;11.60;4.93;;;;;;;-0.07;97.05;102510.91;5035292;28;20454;-81
2021/01/10 06:29:19;;;;;;;13.27;5.00;;;;;;;-0.05;97.06;102512.81;5033324;28;20025;-80
2021/01/10 06:31:46;;;;;;;10.70;5.13;;;;;;;-0.08;97.28;102510.00;5032747;28;20505;-79
2021/01/10 06:34:12;;;;;;;9.30;5.07;;;;;;;-0.05;97.24;102502.72;5033918;28;20024;-79
2021/01/10 06:36:42;;;;;;;13.45;5.63;;;;;;;-0.06;97.15;102511.03;5033447;28;20022;-80
2021/01/10 06:39:13;;;;;;;8.90;4.63;;;;;;;-0.03;97.10;102501.22;5033556;28;20071;-79
2021/01/10 06:41:56;;;;;;;9.80;5.57;;;;;;;-0.01;97.13;102507.31;5034101;28;20493;-79
2021/01/10 06:44:22;;;;;;;13.03;5.47;;;;;;;-0.03;97.11;102513.84;5034972;28;20025;-79
2021/01/10 06:46:49;;;;;;;11.40;5.00;;;;;;;0.02;97.14;102515.94;5034570;28;20383;-80
2021/01/10 06:49:15;;;;;;;11.33;4.57;;;;;;;0.05;97.36;102518.75;5033732;28;20087;-80
2021/01/10 06:51:44;;;;;;;12.07;4.38;;;;;;;0.08;97.04;102519.03;5034753;28;20491;-80
2021/01/10 06:54:10;;;;;;;12.87;5.13;;;;;;;0.09;96.90;102514.13;5033188;28;20099;-80
2021/01/10 06:56:36;;;;;;;12.32;5.07;;;;;;;0.11;97.33;102521.84;5033351;28;20061;-79
2021/01/10 06:59:10;;;;;;;8.73;4.60;;;;;;;0.16;97.17;102515.56;5034577;28;20112;-79
2021/01/10 07:02:02;;;;;;;10.03;4.77;;;;;;;0.18;97.18;102520.00;5033244;28;20029;-78
2021/01/10 07:04:36;;;;;;;14.87;5.13;;;;;;;0.20;97.08;102520.16;5031216;28;20052;-80
2021/01/10 07:07:02;;;;;;;14.43;5.37;;;;;;;0.21;96.78;102515.22;5032869;28;20052;-80
2021/01/10 07:09:53;;;;;;;11.05;5.25;;;;;;;0.23;97.21;102516.25;5034191;28;20029;-81
2021/01/10 07:12:20;;;;;;;11.67;5.10;;;;;;;0.26;97.08;102515.66;5033186;28;20076;-78
2021/01/10 07:14:45;;;;;;;13.27;5.83;;;;;;;0.29;96.93;102513.41;5033197;28;20025;-78
2021/01/10 07:17:11;;;;;;;11.68;6.55;;;;;;;0.33;97.01;102518.00;5033996;28;20029;-78
2021/01/10 07:19:42;;;;;;;20.95;5.53;;;;;;;0.31;97.08;102510.25;5045778;23;20419;-81
2021/01/10 07:22:27;;;;;;;10.23;4.97;;;;;;;0.36;96.84;102509.81;5023649;28;20101;-79
2021/01/10 07:24:52;;;;;;;13.43;4.70;;;;;;;0.51;96.65;102507.03;5022388;28;20075;-81
2021/01/10 07:27:33;;;;;;;9.60;4.35;;;;;;;0.43;96.34;102513.03;5023019;28;20113;-82
2021/01/10 07:30:22;;;;;;;8.87;4.73;;;;;;;0.36;96.24;102512.34;5035532;28;20427;-82
2021/01/10 07:32:48;;;;;;;11.43;4.97;;;;;;;0.36;96.34;102513.25;5042482;28;20063;-81
2021/01/10 07:35:13;;;;;;;9.05;4.75;;;;;;;0.36;96.30;102515.75;5041833;28;20512;-81
2021/01/10 07:37:39;;;;;;;12.93;4.68;;;;;;;0.38;96.41;102514.25;5042727;28;20078;-81
2021/01/10 07:40:07;;;;;;;15.02;4.75;;;;;;;0.37;95.96;102519.19;5042093;28;20029;-81
2021/01/10 07:42:34;;;;;;;9.07;4.43;;;;;;;0.33;96.20;102520.53;5044048;28;20025;-81
2021/01/10 07:45:03;;;;;;;14.03;5.07;;;;;;;0.35;96.07;102513.09;5045476;28;20029;-81
2021/01/10 07:47:31;;;;;;;13.00;4.20;;;;;;;0.34;95.97;102518.91;5041953;28;20021;-81
2021/01/10 07:50:04;;;;;;;11.93;4.23;;;;;;;0.30;95.98;102518.59;5040468;28;20104;-81
2021/01/10 07:52:42;;;;;;;11.83;4.37;;;;;;;0.35;95.83;102518.16;5042273;28;20017;-78
2021/01/10 07:55:29;;;;;;;9.17;4.10;;;;;;;0.36;95.93;102519.94;5042461;28;20036;-81
2021/01/10 07:57:54;;;;;;;11.10;3.78;;;;;;;0.35;95.81;102528.25;5042116;28;20056;-81
2021/01/10 08:00:27;;;;;;;15.73;4.17;;;;;;;0.33;95.86;102530.66;5044191;28;20033;-81
2021/01/10 08:02:55;;;;;;;10.97;3.83;;;;;;;0.33;95.84;102525.59;5040824;28;20017;-82
2021/01/10 08:05:27;;;;;;;8.67;3.50;;;;;;;0.33;95.93;102535.72;5041743;28;20514;-84
2021/01/10 08:07:53;;;;;;;8.50;3.97;;;;;;;0.32;95.91;102531.38;5044244;28;20075;-79
2021/01/10 08:10:20;;;;;;;8.47;3.80;;;;;;;0.33;95.81;102540.75;5040728;28;20021;-81
2021/01/10 08:12:46;;;;;;;13.27;4.07;;;;;;;0.36;95.82;102524.97;5043675;28;20395;-80
2021/01/10 08:15:12;;;;;;;9.68;3.67;;;;;;;0.37;96.08;102532.69;5041747;28;20031;-79
2021/01/10 08:17:39;;;;;;;11.85;3.47;;;;;;;0.42;96.14;102538.19;5044128;28;20039;-80
2021/01/10 08:20:08;;;;;;;8.83;3.60;;;;;;;0.47;96.05;102532.78;5045296;28;20060;-79
2021/01/10 08:22:34;;;;;;;8.93;3.37;;;;;;;0.48;95.75;102533.66;5044928;28;20029;-80
2021/01/10 08:25:00;;;;;;;5.70;2.78;;;;;;;0.47;95.74;102530.25;5045851;28;20052;-80
2021/01/10 08:27:26;;;;;;;15.47;3.80;;;;;;;0.50;95.48;102529.66;5044387;28;20068;-81
2021/01/10 08:29:52;;;;;;;7.85;3.45;;;;;;;0.55;95.75;102528.41;5048803;28;20418;-81
2021/01/10 08:32:20;;;;;;;8.50;3.50;;;;;;;0.63;95.47;102528.34;5044612;28;20514;-80
2021/01/10 08:34:51;;;;;;;9.40;3.27;;;;;;;0.65;95.50;102526.00;5043300;28;20025;-79
2021/01/10 08:37:20;;;;;;;11.43;3.83;;;;;;;0.67;95.43;102532.06;5041736;28;20085;-80
2021/01/10 08:40:02;;;;;;;9.17;4.10;;;;;;;0.73;95.43;102532.63;5043083;28;20031;-81
2021/01/10 08:42:28;;;;;;;9.57;3.47;;;;;;;0.79;95.10;102538.22;5043695;28;20086;-80
2021/01/10 08:44:53;;;;;;;13.07;3.33;;;;;;;0.83;95.19;102537.75;5043987;28;20116;-79
2021/01/10 08:47:18;;;;;;;11.80;3.60;;;;;;;0.87;94.87;102538.91;5043037;28;20387;-80
2021/01/10 08:49:44;;;;;;;10.63;3.47;;;;;;;0.89;94.64;102543.34;5041806;28;20271;-79
2021/01/10 08:52:09;;;;;;;6.85;2.90;;;;;;;0.87;94.57;102549.91;5042930;28;20024;-78
2021/01/10 08:54:34;;;;;;;9.80;3.17;;;;;;;0.85;94.35;102550.53;5040019;28;20024;-81
2021/01/10 08:57:00;;;;;;;6.70;3.08;;;;;;;0.83;94.12;102552.91;5042484;28;20037;-79
2021/01/10 08:59:38;;;;;;;5.75;2.90;;;;;;;0.81;93.68;102549.38;5042850;28;20021;-79
2021/01/10 09:02:08;;;;;;;8.33;3.13;;;;;;;0.77;93.63;102546.44;5037975;28;20453;-79
2021/01/10 09:04:39;;;;;;;6.47;2.60;;;;;;;0.77;93.29;102546.44;5041892;28;20388;-79
2021/01/10 09:07:10;;;;;;;4.77;2.60;;;;;;;0.72;93.38;102547.66;5039519;28;20039;-79
2021/01/10 09:09:53;;;;;;;8.53;3.20;;;;;;;0.66;93.40;102554.69;5043223;28;20033;-80
2021/01/10 09:12:35;;;;;;;14.40;3.43;;;;;;;0.65;93.41;102552.88;5038854;28;20053;-78
2021/01/10 09:15:34;;;;;;;8.77;3.40;;;;;;;0.61;93.40;102557.66;5038318;28;20384;-79
2021/01/10 09:18:01;;;;;;;7.83;3.53;;;;;;;0.69;93.40;102557.50;5038206;28;20041;-79
2021/01/10 09:20:41;;;;;;;10.77;3.67;;;;;;;0.79;93.38;102565.16;5037663;28;20103;-79
2021/01/10 09:23:08;;;;;;;9.07;3.23;;;;;;;0.84;92.93;102556.34;5039146;28;20028;-78
2021/01/10 09:25:34;;;;;;;8.67;2.87;;;;;;;0.92;92.75;102560.44;5037432;28;20043;-78
2021/01/10 09:28:12;;;;;;;5.93;3.30;;;;;;;1.00;92.68;102551.91;5043784;28;20021;-79
2021/01/10 09:30:40;;;;;;;11.20;3.40;;;;;;;1.08;92.37;102558.53;5038047;28;20478;-78
2021/01/10 09:33:07;;;;;;;13.47;3.50;;;;;;;1.20;91.65;102559.63;5038304;28;20111;-79
2021/01/10 09:35:43;;;;;;;8.67;3.27;;;;;;;1.35;91.21;102559.22;5037772;28;20470;-79
2021/01/10 09:38:15;;;;;;;5.50;2.60;;;;;;;1.43;91.17;102561.66;5047146;28;20044;-78
2021/01/10 09:41:05;;;;;;;9.30;3.53;;;;;;;1.52;90.79;102564.09;5043101;28;20108;-77
2021/01/10 09:43:39;;;;;;;15.33;3.87;;;;;;;1.65;90.50;102559.34;5045947;28;20044;-79
2021/01/10 09:46:26;;;;;;;8.23;3.00;;;;;;;1.68;89.89;102554.56;5039264;28;20519;-78
2021/01/10 09:48:55;;;;;;;9.57;2.80;;;;;;;1.70;90.10;102550.50;5043270;28;20534;-78
2021/01/10 09:51:21;;;;;;;8.30;3.53;;;;;;;1.71;90.07;102549.75;5038919;28;20451;-78
2021/01/10 09:53:49;;;;;;;6.30;3.53;;;;;;;1.72;90.16;102549.00;5040884;28;20053;-78
2021/01/10 09:56:35;;;;;;;12.07;4.00;;;;;;;1.92;90.16;102539.66;5048438;28;20029;-79
2021/01/10 09:59:01;;;;;;;9.00;2.80;;;;;;;2.29;89.48;102539.50;5039729;28;20543;-79
2021/01/10 10:01:36;;;;;;;7.65;3.28;;;;;;;2.83;87.91;102537.19;5046417;28;20052;-79
2021/01/10 10:04:02;;;;;;;6.37;2.50;;;;;;;3.57;85.38;102534.72;5044915;28;20103;-80
2021/01/10 10:06:27;;;;;;;9.88;3.08;;;;;;;4.79;79.63;102533.91;5048687;28;20809;-79
2021/01/10 10:08:53;;;;;;;6.27;2.30;;;;;;;5.99;77.48;102534.06;5048628;28;20095;-80
2021/01/10 10:11:19;;;;;;;7.97;3.13;;;;;;;7.21;70.71;102524.38;5049648;28;20053;-80
2021/01/10 10:13:44;;;;;;;9.80;2.28;;;;;;;8.47;70.20;102521.13;5050170;28;20057;-80
2021/01/10 10:16:16;;;;;;;7.07;2.65;;;;;;;9.82;67.94;102529.59;5047280;28;20368;-79
2021/01/10 10:18:42;;;;;;;6.53;2.45;;;;;;;10.70;62.49;102515.34;5043977;28;20049;-80
2021/01/10 10:21:07;;;;;;;7.75;2.70;;;;;;;11.25;60.55;102518.91;5046865;28;20036;-79
2021/01/10 10:23:32;;;;;;;;;;;;;;;12.13;57.14;102515.31;5049019;28;20055;-81
2021/01/10 10:25:58;;;;;;;5.28;2.78;;;;;;;12.32;52.89;102511.81;5047109;28;19917;-81
2021/01/10 10:28:23;;;;;;;;;;;;;;;11.96;53.62;102505.94;5047087;28;20025;-79
2021/01/10 10:30:48;;;;;;;5.40;2.75;;;;;;;12.07;57.68;102509.00;5046556;28;20402;-81
2021/01/10 10:33:13;;;;;;;;;;;;;;;12.48;53.02;102510.78;5047608;28;20486;-82
2021/01/10 10:35:39;;;;;;;7.43;2.80;;;;;;;12.35;53.03;102514.53;5046591;28;19966;-83
2021/01/10 10:38:05;;;;;;;;;;;;;;;11.50;53.14;102513.25;5046226;28;20029;-81
2021/01/10 10:40:30;;;;;;;6.80;3.45;;;;;;;10.24;57.46;102515.59;5045638;28;20251;-82
2021/01/10 10:42:56;;;;;;;;;;;;;;;9.10;62.75;102520.47;5046730;28;20037;-81
2021/01/10 10:45:21;;;;;;;8.88;3.28;;;;;;;9.46;62.60;102521.66;5041954;28;20371;-80
2021/01/10 10:47:47;;;;;;;8.20;3.28;;;;;;;10.23;62.12;102513.81;5044464;28;20036;-82
2021/01/10 10:50:12;;;;;;;6.90;3.22;;;;;;;11.29;56.38;102507.09;5046358;28;20136;-80
2021/01/10 10:52:37;;;;;;;7.70;3.15;;;;;;;12.38;55.33;102506.06;5045386;28;20029;-81
2021/01/10 10:55:04;;;;;;;7.68;3.22;;;;;;;12.67;50.88;102496.97;5046156;28;20053;-80
2021/01/10 10:57:29;;;;;;;6.47;2.97;;;;;;;13.03;51.62;102489.88;5046007;28;20051;-83
2021/01/10 10:59:54;;;;;;;6.55;2.83;;;;;;;12.45;50.51;102485.78;5044423;28;20693;-80
2021/01/10 11:02:20;;;;;;;;;;;;;;;11.23;55.33;102489.66;5042562;28;20375;-80
2021/01/10 11:04:45;;;;;;;7.78;3.38;;;;;;;10.66;57.99;102486.03;5044734;28;20537;-81
2021/01/10 11:07:11;;;;;;;;;;;;;;;10.10;61.30;102485.72;5041726;28;20025;-79
2021/01/10 11:09:37;;;;;;;7.07;3.47;;;;;;;9.88;61.77;102491.41;5043275;28;19919;-82
2021/01/10 11:12:03;;;;;;;5.70;3.20;;;;;;;9.39;60.98;102487.88;5044742;28;20116;-82
2021/01/10 11:14:28;;;;;;;;;;;;;;;9.18;65.14;102491.03;5046401;28;20101;-80
2021/01/10 11:16:53;;;;;;;7.35;3.40;;;;;;;8.89;63.68;102488.53;5047952;28;20547;-81
2021/01/10 11:19:20;;;;;;;7.35;3.72;;;;;;;8.36;65.46;102491.41;5042205;28;20441;-82
2021/01/10 11:21:48;;;;;;;5.97;3.30;;;;;;;7.95;67.13;102491.47;5038799;28;20029;-81
2021/01/10 11:24:14;;;;;;;6.90;3.75;;;;;;;7.52;68.59;102499.06;5042855;28;20572;-81
2021/01/10 11:26:41;;;;;;;;;;;;;;;7.30;69.88;102490.84;5036426;28;20511;-80
2021/01/10 11:29:08;;;;;;;8.48;3.70;;;;;;;7.15;70.46;102493.28;5044068;28;19912;-80
2021/01/10 11:31:35;;;;;;;7.93;3.72;;;;;;;7.04;69.67;102486.63;5042991;28;20064;-81
2021/01/10 11:34:05;;;;;;;5.77;2.87;;;;;;;6.77;69.85;102485.72;5035657;28;20030;-81
2021/01/10 11:36:32;;;;;;;8.20;3.60;;;;;;;6.39;69.73;102481.53;5039163;28;20031;-81